Flight Track Log - Related Links

Times and Time Zones

All times are in EDT time to prevent confusion due to time zone crossing. See the RPA3247 flight status page for this flight to view local times or setup timezone preferences in your user account.

Time Position Orientation Groundspeed Altitude Reporting Facility
EDT Latitude Longitude Course Direction KTS MPH feet Rate Location/Type
Sun 05:31:30 PM 44.3553 -73.1136 195° South 240 276 4,500  Level Boston Center
Sun 05:32:30 PM 44.2800 -73.1244 186° South 260 299 7,800 3,350 Climbing Boston Center
Sun 05:33:30 PM 44.1986 -73.1553 195° South 280 322 11,200 2,636 Climbing Boston Center
Sun 05:34:42 PM 44.1378 -73.2211 218° Southwest 281 323 13,600 2,409 Climbing Boston Center
Sun 05:35:42 PM 44.0581 -73.3067 218° Southwest 301 346 16,500 2,550 Climbing Boston Center
Sun 05:36:00 PM 43.6797 -73.4389 195° South  Level FlightAware Approximate
Sun 05:36:42 PM 43.9928 -73.3836 220° Southwest 306 352 18,700  Level Boston Center
Sun 05:37:42 PM 43.9256 -73.4661 221° Southwest 316 364 20,700 1,850 Climbing Boston Center
Sun 05:38:42 PM 43.8539 -73.5514 221° Southwest 322 371 22,400 1,750 Climbing Boston Center
Sun 05:39:42 PM 43.7781 -73.6364 219° Southwest 343 395 24,200 1,300 Climbing Boston Center
Sun 05:40:42 PM 43.7083 -73.7181 220° Southwest 360 414 25,000 400 Climbing Boston Center
Sun 05:41:42 PM 43.6239 -73.8139 219° Southwest 360 414 25,000  Level Boston Center
Sun 05:42:42 PM 43.5217 -73.8258 185° South 347 399 25,000  Level Boston Center
Sun 05:43:42 PM 43.4175 -73.8064 172° South 359 413 25,000  Level Boston Center
Sun 05:44:42 PM 43.3161 -73.7583 161° South 370 426 25,000  Level Boston Center
Sun 05:45:42 PM 43.2144 -73.7106 161° South 376 433 25,000  Level Boston Center
Sun 05:46:42 PM 43.1083 -73.6972 175° South 376 433 25,000 750 Level Boston Center
Sun 05:47:42 PM 43.0022 -73.6892 177° South 381 438 26,500 1,000 Climbing Boston Center
Sun 05:48:42 PM 42.8939 -73.6842 178° South 389 448 27,000 250 Climbing Boston Center
Sun 05:49:42 PM 42.8022 -73.6794 178° South 383 441 27,000  Level Boston Center
Sun 05:50:42 PM 42.6958 -73.6744 178° South 383 441 27,000 150 Level Boston Center
Sun 05:51:42 PM 42.5875 -73.6667 177° South 383 441 27,300 850 Climbing Boston Center
Sun 05:52:42 PM 42.4772 -73.6589 177° South 383 441 28,700 1,250 Climbing Boston Center
Sun 05:53:42 PM 42.3669 -73.6511 177° South 389 448 29,800 1,200 Climbing Boston Center
Sun 05:54:42 PM 42.2461 -73.6375 175° South 394 453 31,100 1,100 Climbing Boston Center
Sun 05:55:42 PM 42.1372 -73.6747 194° South 393 452 32,000 450 Climbing Boston Center
Sun 05:56:42 PM 42.0325 -73.7369 204° Southwest 407 468 32,000 -250 Level Boston Center
Sun 05:57:42 PM 41.9297 -73.7964 203° Southwest 407 468 31,500 -800 Descending Boston Center
Sun 05:58:42 PM 41.8269 -73.8497 201° Southwest 407 468 30,400 -443 Descending Boston Center
Sun 06:01:05 PM 41.6014 -73.9669 201° Southwest 382 440 30,000 -119 Descending New York Center
Sun 06:02:03 PM 41.4936 -74.0283 203° Southwest 383 441 30,000  Level New York Center
Sun 06:03:04 PM 41.3964 -74.0817 202° Southwest 383 441 30,000  Level New York Center
Sun 06:04:04 PM 41.2950 -74.1344 201° Southwest 383 441 30,000 -101 Level New York Center
Sun 06:05:03 PM 41.1953 -74.1903 203° Southwest 383 441 29,800 -555 Descending New York Center
Sun 06:06:03 PM 41.1144 -74.2550 211° Southwest 383 441 28,900 -942 Descending New York Center
Sun 06:07:04 PM 41.0286 -74.3358 215° Southwest 383 441 27,900 -446 Descending New York Center
Sun 06:08:04 PM 40.9408 -74.4136 214° Southwest 383 441 28,000 50 Climbing New York Center
Sun 06:09:04 PM 40.8572 -74.4942 216° Southwest 383 441 28,000  Level New York Center
Sun 06:10:03 PM 40.7714 -74.5717 214° Southwest 383 441 28,000  Level New York Center
Sun 06:11:03 PM 40.6856 -74.6461 213° Southwest 383 441 28,000 -99 Level New York Center
Sun 06:12:04 PM 40.6017 -74.7261 216° Southwest 383 441 27,800 -694 Descending New York Center
Sun 06:13:04 PM 40.5297 -74.8175 224° Southwest 378 435 26,600 -1,190 Descending New York Center
Sun 06:14:05 PM 40.4617 -74.9172 228° Southwest 373 429 25,400 -1,140 Descending New York Center
Sun 06:15:05 PM 40.3936 -75.0114 227° Southwest 368 423 24,300 -1,388 Descending New York Center
Sun 06:16:06 PM 40.3278 -75.1053 227° Southwest 362 417 22,600 -1,850 Descending New York Center
Sun 06:17:05 PM 40.2619 -75.1964 227° Southwest 356 410 20,600 -1,311 Descending New York Center
Sun 06:18:05 PM 40.2003 -75.2847 228° Southwest 356 410 20,000 -298 Descending New York Center
Sun 06:19:06 PM 40.1383 -75.3731 227° Southwest 344 396 20,000  Level New York Center
Sun 06:20:03 PM 40.0744 -75.4611 227° Southwest 339 390 20,000  Level New York Center
Sun 06:21:03 PM 40.0125 -75.5492 227° Southwest 339 390 20,000  Level New York Center
Sun 06:22:04 PM 39.9486 -75.6342 226° Southwest 334 384 20,000  Level New York Center
Sun 06:23:04 PM 39.8886 -75.7244 229° Southwest 334 384 20,000 -198 Level New York Center
Sun 06:24:05 PM 39.8303 -75.8206 232° Southwest 334 384 19,600 -908 Descending New York Center
Sun 06:25:03 PM 39.7725 -75.9028 228° Southwest 334 384 18,200 -1,179 Descending New York Center
Sun 06:26:02 PM 39.7183 -75.9961 233° Southwest 328 377 17,300 -1,082 Descending New York Center
Sun 06:27:05 PM 39.6558 -76.0911 230° Southwest 322 371 16,000 -1,122 Descending New York Center
Sun 06:28:05 PM 39.6017 -76.1814 232° Southwest 322 371 15,000 -1,059 Descending New York Center
Sun 06:29:04 PM 39.5519 -76.2611 231° Southwest 304 350 13,900 -1,113 Descending New York Center
Sun 06:29:42 PM 39.5167 -76.3167 231° Southwest 301 346 13,200 -1,109 Descending Potomac TRACON
Sun 06:30:36 PM 39.4667 -76.4000 232° Southwest 297 342 12,200 -632 Descending Potomac TRACON
Sun 06:31:36 PM 39.4000 -76.4667 218° Southwest 295 339 12,000 -100 Descending Potomac TRACON
Sun 06:32:36 PM 39.3333 -76.5167 210° Southwest 296 341 12,000 -421 Level Potomac TRACON
Sun 06:33:30 PM 39.2667 -76.5667 210° Southwest 296 341 11,200 -835 Descending Potomac TRACON
Sun 06:34:31 PM 39.2000 -76.6333 218° Southwest 287 330 10,400 -595 Descending Potomac TRACON
Sun 06:35:31 PM 39.1500 -76.7000 226° Southwest 286 329 10,000 -200 Descending Potomac TRACON
Sun 06:36:31 PM 39.0833 -76.7500 210° Southwest 243 280 10,000 -50 Level Potomac TRACON
Sun 06:37:31 PM 39.0333 -76.8167 226° Southwest 239 275 9,900 -750 Descending Potomac TRACON
Sun 06:38:31 PM 39.0000 -76.8667 229° Southwest 240 276 8,500 -1,350 Descending Potomac TRACON
Sun 06:39:31 PM 38.9667 -76.9500 243° Southwest 228 262 7,200 -1,350 Descending Potomac TRACON
Sun 06:40:31 PM 38.9833 -77.0333 284° West 226 260 5,800 -1,150 Descending Potomac TRACON
Sun 06:41:31 PM 39.0167 -77.0833 311° West 199 229 4,900 -1,100 Descending Potomac TRACON
Sun 06:42:31 PM 39.0333 -77.1333 293° West 185 213 3,600 -950 Descending Potomac TRACON
Sun 06:43:31 PM 39.0000 -77.1833 229° Southwest 170 196 3,000 -400 Descending Potomac TRACON
Sun 06:44:31 PM 38.9667 -77.1667 159° South 182 209 2,800 -550 Descending Potomac TRACON
Sun 06:45:31 PM 38.9167 -77.1167 142° Southeast 180 207 1,900 -950 Descending Potomac TRACON
Sun 06:46:31 PM 38.9000 -77.0667 113° Southeast 165 190 900 -1,000 Descending Potomac TRACON
Sun 06:48:00 PM 38.8519 -77.0377 156° South  Level Estimated
Sun 06:55:00 PM 38.8519 -77.0377 North  Level Estimated
Sun 06:56:00 PM 38.8519 -77.0377 343° North  Level Estimated
Sun 06:57:00 PM 38.8500 -77.0333 343° North  Level FlightAware Approximate

Login

Don't have an account? Register now (free) for customized features, flight alerts, and more!